createdAt,value
2022-10-28T00:01:15.028Z,101692.47
2022-10-28T00:03:53.153Z,101698.63
2022-10-28T00:06:21.781Z,101695.78
2022-10-28T00:08:49.315Z,101699.25
2022-10-28T00:11:17.670Z,101710.34
2022-10-28T00:13:46.064Z,101701.78
2022-10-28T00:16:14.314Z,101701.16
2022-10-28T00:18:41.805Z,101701.13
2022-10-28T00:21:14.140Z,101701.75
2022-10-28T00:23:42.252Z,101701.00
2022-10-28T00:26:10.784Z,101700.38
2022-10-28T00:28:45.001Z,101702.88
2022-10-28T00:31:12.709Z,101704.34
2022-10-28T00:33:40.249Z,101703.56
2022-10-28T00:36:27.844Z,101702.81
2022-10-28T00:38:55.583Z,101714.31
2022-10-28T00:41:27.262Z,101710.06
2022-10-28T00:43:55.700Z,101706.88
2022-10-28T00:46:28.711Z,101705.66
2022-10-28T00:49:06.461Z,101704.09
2022-10-28T00:51:33.893Z,101707.91
2022-10-28T00:54:01.222Z,101700.38
2022-10-28T00:56:32.570Z,101705.16
2022-10-28T00:59:00.860Z,101711.59
2022-10-28T01:01:28.520Z,101708.59
2022-10-28T01:03:58.492Z,101707.19
2022-10-28T01:06:26.926Z,101705.91
2022-10-28T01:08:57.525Z,101707.72
2022-10-28T01:11:30.718Z,101706.03
2022-10-28T01:13:58.145Z,101714.66
2022-10-28T01:16:44.380Z,101707.63
2022-10-28T01:19:20.594Z,101702.31
2022-10-28T01:21:59.085Z,101704.69
2022-10-28T01:24:47.295Z,101712.78
2022-10-28T01:27:19.834Z,101705.53
2022-10-28T01:29:56.245Z,101699.09
2022-10-28T01:32:30.793Z,101705.41
2022-10-28T01:34:58.143Z,101708.06
2022-10-28T01:37:35.476Z,101709.78
2022-10-28T01:40:11.442Z,101710.69
2022-10-28T01:42:44.847Z,101710.34
2022-10-28T01:45:17.738Z,101710.13
2022-10-28T01:47:53.708Z,101706.34
2022-10-28T01:50:25.523Z,101704.22
2022-10-28T01:52:54.172Z,101702.63
2022-10-28T01:55:27.095Z,101712.50
2022-10-28T01:57:55.311Z,101713.31
2022-10-28T02:00:22.743Z,101721.50
2022-10-28T02:02:50.816Z,101714.03
2022-10-28T02:05:38.082Z,101719.44
2022-10-28T02:08:25.765Z,101713.16
2022-10-28T02:10:53.143Z,101717.09
2022-10-28T02:13:20.441Z,101719.22
2022-10-28T02:15:54.284Z,101718.22
2022-10-28T02:18:26.212Z,101722.63
2022-10-28T02:20:55.417Z,101724.56
2022-10-28T02:23:25.840Z,101724.69
2022-10-28T02:26:06.339Z,101726.28
2022-10-28T02:28:46.843Z,101727.56
2022-10-28T02:31:34.750Z,101728.28
2022-10-28T02:34:22.362Z,101724.94
2022-10-28T02:36:51.247Z,101723.88
2022-10-28T02:39:19.723Z,101727.78
2022-10-28T02:41:58.232Z,101737.25
2022-10-28T02:44:28.053Z,101730.63
2022-10-28T02:46:56.191Z,101736.41
2022-10-28T02:49:23.507Z,101732.69
2022-10-28T02:51:55.304Z,101734.41
2022-10-28T02:54:32.126Z,101736.13
2022-10-28T02:57:01.263Z,101739.59
2022-10-28T02:59:28.774Z,101742.56
2022-10-28T03:01:56.223Z,101741.38
2022-10-28T03:04:23.662Z,101737.34
2022-10-28T03:06:51.946Z,101743.53
2022-10-28T03:09:19.416Z,101744.19
2022-10-28T03:11:46.740Z,101738.34
2022-10-28T03:14:15.428Z,101739.81
2022-10-28T03:16:44.412Z,101738.13
2022-10-28T03:19:11.823Z,101745.94
2022-10-28T03:21:39.264Z,101744.78
2022-10-28T03:24:06.740Z,101744.88
2022-10-28T03:26:34.122Z,101745.97
2022-10-28T03:29:01.447Z,101744.78
2022-10-28T03:31:28.942Z,101744.47
2022-10-28T03:33:56.417Z,101751.75
2022-10-28T03:36:24.083Z,101750.00
2022-10-28T03:38:51.516Z,101745.66
2022-10-28T03:41:21.367Z,101747.47
2022-10-28T03:43:50.251Z,101754.88
2022-10-28T03:46:17.581Z,101745.91
2022-10-28T03:48:44.965Z,101751.69
2022-10-28T03:51:12.312Z,101756.34
2022-10-28T03:53:40.041Z,101747.59
2022-10-28T03:56:07.585Z,101743.59
2022-10-28T03:58:37.303Z,101743.16
2022-10-28T04:01:07.758Z,101745.66
2022-10-28T04:03:35.117Z,101754.97
2022-10-28T04:06:02.415Z,101755.91
2022-10-28T04:08:33.545Z,101754.97
2022-10-28T04:11:00.975Z,101755.16
2022-10-28T04:13:28.477Z,101754.53
2022-10-28T04:15:55.813Z,101755.41
2022-10-28T04:18:23.325Z,101753.81
2022-10-28T04:20:50.748Z,101757.31
2022-10-28T04:23:21.091Z,101757.72
2022-10-28T04:25:51.612Z,101757.38
2022-10-28T04:28:19.079Z,101757.22
2022-10-28T04:30:47.404Z,101773.31
2022-10-28T04:33:14.754Z,101771.63
2022-10-28T04:35:43.315Z,101772.41
2022-10-28T04:38:11.101Z,101774.75
2022-10-28T04:40:38.809Z,101778.69
2022-10-28T04:43:08.610Z,101773.53
2022-10-28T04:45:37.851Z,101782.34
2022-10-28T04:48:05.411Z,101774.66
2022-10-28T04:50:32.933Z,101779.53
2022-10-28T04:53:00.528Z,101780.59
2022-10-28T04:55:28.083Z,101791.47
2022-10-28T04:57:55.514Z,101786.22
2022-10-28T05:00:23.311Z,101799.50
2022-10-28T05:02:51.700Z,101795.72
2022-10-28T05:05:19.093Z,101796.34
2022-10-28T05:07:47.052Z,101797.00
2022-10-28T05:10:18.354Z,101797.28
2022-10-28T05:12:45.881Z,101809.09
2022-10-28T05:15:13.516Z,101799.25
2022-10-28T05:17:45.583Z,101807.19
2022-10-28T05:20:13.306Z,101802.34
2022-10-28T05:22:47.593Z,101813.47
2022-10-28T05:25:15.164Z,101806.56
2022-10-28T05:27:42.640Z,101810.94
2022-10-28T05:30:10.325Z,101809.81
2022-10-28T05:32:37.843Z,101807.88
2022-10-28T05:35:05.417Z,101813.69
2022-10-28T05:37:32.994Z,101811.22
2022-10-28T05:40:01.332Z,101812.06
2022-10-28T05:42:28.687Z,101814.25
2022-10-28T05:44:55.979Z,101817.53
2022-10-28T05:47:23.270Z,101816.91
2022-10-28T05:49:50.578Z,101809.66
2022-10-28T05:52:18.939Z,101814.72
2022-10-28T05:54:46.258Z,101813.38
2022-10-28T05:57:13.691Z,101824.03
2022-10-28T05:59:42.047Z,101820.34
2022-10-28T06:02:15.316Z,101819.00
2022-10-28T06:04:45.091Z,101818.41
2022-10-28T06:07:12.681Z,101822.97
2022-10-28T06:09:39.970Z,101823.72
2022-10-28T06:12:06.970Z,101822.47
2022-10-28T06:14:34.524Z,101832.28
2022-10-28T06:17:02.517Z,101831.78
2022-10-28T06:19:29.910Z,101816.59
2022-10-28T06:21:59.112Z,101834.72
2022-10-28T06:24:26.432Z,101834.00
2022-10-28T06:26:53.861Z,101832.94
2022-10-28T06:29:21.150Z,101834.47
2022-10-28T06:31:48.616Z,101837.44
2022-10-28T06:34:15.930Z,101837.19
2022-10-28T06:36:43.633Z,101836.63
2022-10-28T06:39:11.018Z,101840.19
2022-10-28T06:41:38.508Z,101836.00
2022-10-28T06:44:05.950Z,101840.63
2022-10-28T06:46:34.786Z,101835.16
2022-10-28T06:49:04.744Z,101838.88
2022-10-28T06:51:32.225Z,101824.34
2022-10-28T06:54:01.013Z,101836.00
2022-10-28T06:56:28.455Z,101833.22
2022-10-28T06:58:55.747Z,101831.69
2022-10-28T07:01:23.253Z,101834.84
2022-10-28T07:03:50.641Z,101828.34
2022-10-28T07:06:18.060Z,101827.28
2022-10-28T07:08:45.402Z,101821.34
2022-10-28T07:11:12.885Z,101817.88
2022-10-28T07:13:41.731Z,101822.94
2022-10-28T07:16:10.769Z,101815.53
2022-10-28T07:18:39.370Z,101824.19
2022-10-28T07:21:06.761Z,101819.72
2022-10-28T07:23:34.450Z,101820.00
2022-10-28T07:26:01.824Z,101822.13
2022-10-28T07:28:29.308Z,101822.56
2022-10-28T07:31:00.633Z,101828.00
2022-10-28T07:33:28.139Z,101824.50
2022-10-28T07:35:55.482Z,101830.22
2022-10-28T07:38:23.225Z,101822.63
2022-10-28T07:40:50.548Z,101828.13
2022-10-28T07:43:20.001Z,101828.34
2022-10-28T07:45:47.645Z,101831.22
2022-10-28T07:48:15.464Z,101831.97
2022-10-28T07:50:42.892Z,101836.06
2022-10-28T07:53:10.354Z,101835.53
2022-10-28T07:55:39.326Z,101838.84
2022-10-28T07:58:06.785Z,101832.91
2022-10-28T08:00:35.064Z,101839.16
2022-10-28T08:03:02.738Z,101832.22
2022-10-28T08:05:30.315Z,101832.34
2022-10-28T08:07:57.734Z,101839.44
2022-10-28T08:10:25.246Z,101837.09
2022-10-28T08:12:52.816Z,101839.06
2022-10-28T08:15:23.631Z,101832.22
2022-10-28T08:17:51.725Z,101838.94
2022-10-28T08:20:19.910Z,101842.53
2022-10-28T08:22:47.323Z,101833.47
2022-10-28T08:25:14.617Z,101838.13
2022-10-28T08:27:42.377Z,101836.31
2022-10-28T08:30:10.729Z,101833.72
2022-10-28T08:32:38.185Z,101834.69
2022-10-28T08:35:05.833Z,101836.63
2022-10-28T08:37:33.429Z,101833.88
2022-10-28T08:40:00.852Z,101838.44
2022-10-28T08:42:46.696Z,101832.13
2022-10-28T08:45:15.884Z,101831.31
2022-10-28T08:48:03.812Z,101829.75
2022-10-28T08:50:32.061Z,101839.16
2022-10-28T08:53:16.856Z,101837.06
2022-10-28T08:55:45.869Z,101837.94
2022-10-28T08:58:40.692Z,101842.53
2022-10-28T09:01:10.339Z,101846.53
2022-10-28T09:03:39.287Z,101840.47
2022-10-28T09:06:08.400Z,101842.59
2022-10-28T09:11:27.297Z,101842.19
2022-10-28T09:14:11.258Z,101834.03
2022-10-28T09:16:57.532Z,101828.03
2022-10-28T09:19:25.698Z,101832.53
2022-10-28T09:33:50.964Z,101831.19
2022-10-28T09:39:11.371Z,101827.66
2022-10-28T09:41:39.391Z,101831.19
2022-10-28T09:46:58.522Z,101835.66
2022-10-28T09:49:26.620Z,101828.63
2022-10-28T09:54:54.484Z,101830.31
2022-10-28T09:57:22.498Z,101834.22
2022-10-28T09:59:49.967Z,101827.69
2022-10-28T10:02:27.527Z,101829.38
2022-10-28T10:13:17.841Z,101836.28
2022-10-28T10:15:49.360Z,101832.63
2022-10-28T10:18:17.592Z,101829.69
2022-10-28T10:23:35.061Z,101828.13
2022-10-28T10:26:12.020Z,101834.25
2022-10-28T10:31:29.869Z,101820.47
2022-10-28T10:33:57.337Z,101823.50
2022-10-28T10:36:28.896Z,101826.84
2022-10-28T10:38:57.048Z,101830.59
2022-10-28T10:41:34.648Z,101829.47
2022-10-28T10:44:02.185Z,101829.25
2022-10-28T10:46:30.192Z,101826.59
2022-10-28T10:51:57.214Z,101827.13
2022-10-28T10:54:28.305Z,101825.97
2022-10-28T10:57:06.431Z,101823.56
2022-10-28T10:59:34.129Z,101829.34
2022-10-28T11:02:01.656Z,101817.94
2022-10-28T11:09:59.929Z,101822.72
2022-10-28T11:15:17.234Z,101830.47
2022-10-28T11:17:54.170Z,101823.69
2022-10-28T11:20:26.202Z,101824.19
2022-10-28T11:26:06.031Z,101823.06
2022-10-28T11:31:30.418Z,101822.09
2022-10-28T11:34:03.625Z,101815.19
2022-10-28T11:36:37.774Z,101814.47
2022-10-28T11:39:08.406Z,101813.88
2022-10-28T11:41:57.653Z,101810.97
2022-10-28T11:47:10.624Z,101799.66
2022-10-28T11:50:01.748Z,101801.03
2022-10-28T11:55:26.552Z,101801.47
2022-10-28T11:57:58.239Z,101809.63
2022-10-28T12:00:26.029Z,101814.22
2022-10-28T12:03:12.280Z,101814.31
2022-10-28T12:09:01.295Z,101807.56
2022-10-28T12:14:27.578Z,101817.50
2022-10-28T12:17:06.662Z,101821.84
2022-10-28T12:19:37.630Z,101828.91
2022-10-28T12:30:27.164Z,101824.44
2022-10-28T12:33:03.320Z,101820.53
2022-10-28T12:38:30.887Z,101824.91
2022-10-28T12:41:03.047Z,101824.06
2022-10-28T12:43:33.004Z,101822.78
2022-10-28T12:46:00.355Z,101825.31
2022-10-28T12:48:33.980Z,101826.28
2022-10-28T12:54:03.649Z,101827.41
2022-10-28T12:56:36.421Z,101828.97
2022-10-28T13:01:49.631Z,101831.88
2022-10-28T13:04:17.259Z,101829.47
2022-10-28T13:06:47.319Z,101841.41
2022-10-28T18:26:11.025Z,101855.16
2022-10-28T18:31:23.660Z,101852.16
2022-10-28T18:33:51.523Z,101853.63
2022-10-28T18:36:20.009Z,101857.19
2022-10-28T18:47:05.071Z,101861.75
2022-10-28T18:49:32.410Z,101862.31
2022-10-28T18:54:45.525Z,101868.38
2022-10-28T19:00:17.216Z,101865.13
2022-10-28T19:02:47.785Z,101862.81
2022-10-28T19:08:01.445Z,101871.06
2022-10-28T19:10:30.262Z,101870.00
2022-10-28T19:12:57.811Z,101874.06
2022-10-28T19:26:33.572Z,101869.69
2022-10-28T19:31:49.332Z,101867.53
2022-10-28T19:39:46.671Z,101878.81
2022-10-28T19:47:47.044Z,101885.03
2022-10-28T19:50:14.665Z,101869.38
2022-10-28T19:52:45.910Z,101882.84
2022-10-28T19:55:15.031Z,101874.03
2022-10-28T19:57:44.935Z,101886.34
2022-10-28T20:00:14.326Z,101872.16
2022-10-28T20:02:42.149Z,101874.28
2022-10-28T20:05:09.646Z,101877.81
2022-10-28T20:07:37.443Z,101873.25
2022-10-28T20:21:07.041Z,101874.34
2022-10-28T20:23:35.980Z,101867.22
2022-10-28T20:26:03.932Z,101871.41
2022-10-28T20:28:31.732Z,101865.34
2022-10-28T20:31:02.457Z,101859.78
2022-10-28T20:33:31.027Z,101867.44
2022-10-28T20:36:01.520Z,101865.38
2022-10-28T20:38:29.561Z,101866.69
2022-10-28T20:41:00.734Z,101865.66
2022-10-28T20:43:28.706Z,101864.09
2022-10-28T20:51:31.630Z,101859.91
2022-10-28T20:53:59.491Z,101869.16
2022-10-28T21:01:58.418Z,101864.63
2022-10-28T21:04:26.686Z,101867.66
2022-10-28T21:06:54.365Z,101868.84
2022-10-28T21:09:22.317Z,101860.91
2022-10-28T21:14:35.543Z,101861.53
2022-10-28T21:17:02.915Z,101857.91
2022-10-28T21:19:30.414Z,101851.59
2022-10-28T21:21:59.105Z,101857.44
2022-10-28T21:24:27.107Z,101852.84
2022-10-28T21:26:54.429Z,101843.75
2022-10-28T21:32:06.795Z,101848.56
2022-10-28T21:37:19.594Z,101850.06
2022-10-28T21:42:36.331Z,101852.47
2022-10-28T21:56:09.155Z,101846.31
2022-10-28T21:58:38.899Z,101835.63
2022-10-28T22:01:07.458Z,101832.97
2022-10-28T22:06:21.271Z,101839.09
2022-10-28T22:11:34.738Z,101836.59
2022-10-28T22:14:02.652Z,101837.13
2022-10-28T22:16:31.602Z,101828.16
2022-10-28T22:21:46.009Z,101833.72
2022-10-28T22:24:13.447Z,101836.00
2022-10-28T22:29:26.459Z,101820.56
2022-10-28T22:31:53.955Z,101820.19
2022-10-28T22:34:21.524Z,101834.78
2022-10-28T22:36:49.348Z,101824.25
2022-10-28T22:42:02.108Z,101828.63
2022-10-28T22:44:29.614Z,101827.63
2022-10-28T22:46:57.184Z,101828.66
2022-10-28T22:49:26.939Z,101824.09
2022-10-28T22:51:57.843Z,101820.56
2022-10-28T22:54:25.512Z,101823.13
2022-10-28T22:56:53.044Z,101818.03
2022-10-28T23:04:50.361Z,101819.84
2022-10-28T23:07:17.911Z,101824.16
2022-10-28T23:09:45.265Z,101818.63
2022-10-28T23:12:14.522Z,101816.88
2022-10-28T23:14:41.902Z,101810.91
2022-10-28T23:17:09.536Z,101816.88
2022-10-28T23:19:39.638Z,101812.63
2022-10-28T23:27:41.271Z,101814.13
2022-10-28T23:32:53.960Z,101820.91
2022-10-28T23:35:22.487Z,101814.38
2022-10-28T23:37:50.003Z,101812.41
2022-10-28T23:40:17.383Z,101810.97
2022-10-28T23:42:44.991Z,101808.75
2022-10-28T23:45:12.328Z,101811.94
2022-10-28T23:47:39.700Z,101809.16
2022-10-28T23:52:55.886Z,101809.97
2022-10-28T23:55:23.591Z,101801.91
2022-10-28T23:57:51.228Z,101801.38
